Time;durP1;ratioP1;P1;durP2;ratioP2;P2;SDS_P1;SDS_P2;PMS_P1;PMS_P2;Temp;Humidity;BMP_temperature;BMP_pressure;BME280_temperature;BME280_humidity;BME280_pressure;Samples;Min_cycle;Max_cycle;Signal;HPM_P1;HPM_P2
2022/05/09 00:00:36;;;;;;;;;;;;;;;18.48;62.63;99067.41;2097062;28;20577;-50
2022/05/09 00:01:38;;;;;;;;;;;;;;;18.48;62.46;99066.59;2095848;28;20704;-51
2022/05/09 00:02:40;;;;;;;;;;;;;;;18.49;62.50;99068.25;2097862;28;19931;-48
2022/05/09 00:03:40;;;;;;;;;;;;;;;18.51;62.59;99068.88;2098886;28;19928;-49
2022/05/09 00:04:42;;;;;;;;;;;;;;;18.54;62.47;99066.63;2094066;28;19932;-55
2022/05/09 00:05:46;;;;;;;;;;;;;;;18.53;62.58;99066.84;2098108;28;19983;-48
2022/05/09 00:06:47;;;;;;;;;;;;;;;18.51;62.68;99061.66;2096254;28;19985;-48
2022/05/09 00:07:49;;;;;;;;;;;;;;;18.51;62.51;99067.03;2098664;28;19924;-48
2022/05/09 00:08:50;;;;;;;;;;;;;;;18.52;62.58;99066.00;2097200;28;19932;-46
2022/05/09 00:09:51;;;;;;;;;;;;;;;18.50;62.66;99062.69;2097197;28;19935;-46
2022/05/09 00:10:52;;;;;;;;;;;;;;;18.50;62.65;99056.50;2096724;28;20518;-51
2022/05/09 00:11:53;;;;;;;;;;;;;;;18.52;62.56;99055.25;2099744;28;19928;-46
2022/05/09 00:12:55;;;;;;;;;;;;;;;18.49;62.61;99061.00;2096469;28;19932;-51
2022/05/09 00:13:56;;;;;;;;;;;;;;;18.50;62.41;99057.31;2097693;28;21828;-48
2022/05/09 00:14:57;;;;;;;;;;;;;;;18.49;62.45;99057.50;2095206;28;19938;-46
2022/05/09 00:15:58;;;;;;;;;;;;;;;18.49;62.51;99052.13;2099679;28;19925;-46
2022/05/09 00:17:01;;;;;;;;;;;;;;;18.49;62.69;99058.31;2097688;28;19939;-46
2022/05/09 00:18:01;;;;;;;;;;;;;;;18.48;62.59;99050.47;2098982;28;19975;-47
2022/05/09 00:19:03;;;;;;;;;;;;;;;18.50;62.39;99056.50;2097444;28;19927;-48
2022/05/09 00:20:05;;;;;;;;;;;;;;;18.48;62.25;99056.66;2097692;28;20321;-46
2022/05/09 00:21:07;;;;;;;;;;;;;;;18.48;62.51;99053.97;2097323;28;19925;-49
2022/05/09 00:22:08;;;;;;;;;;;;;;;18.47;62.55;99054.16;2093802;28;21091;-48
2022/05/09 00:23:09;;;;;;;;;;;;;;;18.50;62.57;99053.81;2097246;28;19989;-47
2022/05/09 00:24:14;;;;;;;;;;;;;;;18.50;62.52;99054.63;2097438;28;19932;-48
2022/05/09 00:25:17;;;;;;;;;;;;;;;18.50;62.41;99053.81;2098122;28;19932;-48
2022/05/09 00:26:18;;;;;;;;;;;;;;;18.49;62.41;99052.94;2097468;28;20398;-50
2022/05/09 00:27:20;;;;;;;;;;;;;;;18.49;62.24;99052.94;2096074;28;19924;-47
2022/05/09 00:28:21;;;;;;;;;;;;;;;18.49;62.61;99060.19;2096895;28;19975;-46
2022/05/09 00:29:23;;;;;;;;;;;;;;;18.48;62.58;99053.97;2095260;28;19952;-47
2022/05/09 00:30:23;;;;;;;;;;;;;;;18.47;62.63;99049.66;2099202;28;19932;-48
2022/05/09 00:31:25;;;;;;;;;;;;;;;18.48;62.41;99053.16;2097317;28;19939;-46
2022/05/09 00:32:27;;;;;;;;;;;;;;;18.48;62.54;99050.47;2099876;28;19977;-47
2022/05/09 00:33:29;;;;;;;;;;;;;;;18.49;62.54;99060.19;2098841;28;19970;-47
2022/05/09 00:34:29;;;;;;;;;;;;;;;18.46;62.61;99058.72;2097772;28;20541;-48
2022/05/09 00:35:31;;;;;;;;;;;;;;;18.50;62.59;99049.25;2098277;28;19935;-46
2022/05/09 00:36:32;;;;;;;;;;;;;;;18.47;62.54;99046.97;2095211;28;20363;-48
2022/05/09 00:37:33;;;;;;;;;;;;;;;18.46;62.38;99053.34;2097908;28;19928;-46
2022/05/09 00:38:34;;;;;;;;;;;;;;;18.47;62.60;99049.66;2099290;28;20026;-50
2022/05/09 00:39:35;;;;;;;;;;;;;;;18.49;62.63;99055.63;2093659;28;19940;-46
2022/05/09 00:40:37;;;;;;;;;;;;;;;18.47;62.38;99055.03;2095332;28;19935;-49
2022/05/09 00:41:41;;;;;;;;;;;;;;;18.47;62.50;99049.66;2097471;28;20333;-47
2022/05/09 00:42:44;;;;;;;;;;;;;;;18.45;62.76;99051.69;2096598;28;19924;-47
2022/05/09 00:43:45;;;;;;;;;;;;;;;18.46;62.51;99053.34;2099942;28;19928;-48
2022/05/09 00:44:47;;;;;;;;;;;;;;;18.46;62.65;99053.34;2094309;28;19935;-48
2022/05/09 00:45:48;;;;;;;;;;;;;;;18.44;62.54;99055.41;2098575;28;20530;-47
2022/05/09 00:46:51;;;;;;;;;;;;;;;18.44;62.67;99052.72;2095327;28;19928;-47
2022/05/09 00:47:53;;;;;;;;;;;;;;;18.45;62.69;99054.38;2100313;28;19935;-48
2022/05/09 00:48:56;;;;;;;;;;;;;;;18.46;62.44;99055.19;2100428;28;20014;-48
2022/05/09 00:50:00;;;;;;;;;;;;;;;18.43;62.64;99053.72;2096778;28;19981;-49
2022/05/09 00:51:01;;;;;;;;;;;;;;;18.46;62.53;99057.88;2096721;28;19934;-47
2022/05/09 00:52:05;;;;;;;;;;;;;;;18.45;62.63;99059.75;2096815;28;20051;-46
2022/05/09 00:53:07;;;;;;;;;;;;;;;18.46;62.57;99057.88;2099251;28;19924;-52
2022/05/09 00:54:09;;;;;;;;;;;;;;;18.46;62.25;99050.66;2096371;28;19924;-47
2022/05/09 00:55:13;;;;;;;;;;;;;;;18.44;62.50;99059.91;2099208;28;20378;-47
2022/05/09 00:56:17;;;;;;;;;;;;;;;18.44;62.42;99055.41;2097661;28;19932;-48
2022/05/09 00:57:21;;;;;;;;;;;;;;;18.44;62.63;99058.09;2095720;28;20282;-45
2022/05/09 00:58:25;;;;;;;;;;;;;;;18.44;62.29;99060.78;2097891;28;19940;-46
2022/05/09 00:59:26;;;;;;;;;;;;;;;18.44;62.73;99058.09;2094823;28;19935;-48
2022/05/09 01:00:27;;;;;;;;;;;;;;;18.43;62.32;99053.72;2093943;28;20523;-47
2022/05/09 01:01:28;;;;;;;;;;;;;;;18.45;62.44;99058.91;2095097;28;19974;-47
2022/05/09 01:02:30;;;;;;;;;;;;;;;18.43;62.58;99056.41;2097052;28;19938;-48
2022/05/09 01:03:35;;;;;;;;;;;;;;;18.45;62.45;99061.59;2098189;28;19924;-49
2022/05/09 01:04:41;;;;;;;;;;;;;;;18.43;62.50;99058.28;2100793;28;19927;-50
2022/05/09 01:05:45;;;;;;;;;;;;;;;18.41;62.67;99055.75;2097787;28;19928;-46
2022/05/09 01:06:47;;;;;;;;;;;;;;;18.43;62.55;99058.28;2095803;28;19955;-50
2022/05/09 01:07:47;;;;;;;;;;;;;;;18.43;62.63;99053.72;2097537;28;20443;-46
2022/05/09 01:08:49;;;;;;;;;;;;;;;18.42;62.56;99052.06;2098936;28;19932;-47
2022/05/09 01:09:49;;;;;;;;;;;;;;;18.42;62.56;99057.44;2099840;28;19945;-49
2022/05/09 01:10:52;;;;;;;;;;;;;;;18.42;62.41;99054.75;2100613;28;19928;-45
2022/05/09 01:11:53;;;;;;;;;;;;;;;18.43;62.41;99060.97;2095600;28;19931;-47
2022/05/09 01:12:55;;;;;;;;;;;;;;;18.43;62.31;99063.66;2096136;28;19932;-47
2022/05/09 01:14:00;;;;;;;;;;;;;;;18.42;62.43;99054.75;2098200;28;19947;-47
2022/05/09 01:15:04;;;;;;;;;;;;;;;18.42;62.35;99062.00;2095881;28;19936;-49
2022/05/09 01:16:05;;;;;;;;;;;;;;;18.42;62.56;99056.63;2096028;28;20531;-47
2022/05/09 01:17:07;;;;;;;;;;;;;;;18.41;62.70;99055.75;2096283;28;19931;-46
2022/05/09 01:18:09;;;;;;;;;;;;;;;18.40;62.71;99059.47;2098625;28;20410;-47
2022/05/09 01:19:19;;;;;;;;;;;;;;;18.42;62.68;99060.13;2096202;28;19931;-47
2022/05/09 01:20:20;;;;;;;;;;;;;;;18.43;62.37;99066.31;2092385;28;19924;-47
2022/05/09 01:21:36;;;;;;;;;;;;;;;18.43;62.52;99064.47;2093619;28;20018;-47
2022/05/09 01:22:37;;;;;;;;;;;;;;;18.44;62.67;99073.34;2098557;28;19980;-46
2022/05/09 01:23:39;;;;;;;;;;;;;;;18.44;62.25;99066.16;2095842;28;19969;-48
2022/05/09 01:24:39;;;;;;;;;;;;;;;18.43;62.48;99069.00;2096443;28;20441;-46
2022/05/09 01:25:41;;;;;;;;;;;;;;;18.43;62.33;99069.00;2096054;28;19935;-48
2022/05/09 01:26:41;;;;;;;;;;;;;;;18.43;62.51;99061.78;2096000;28;19950;-46
2022/05/09 01:27:44;;;;;;;;;;;;;;;18.43;62.45;99069.00;2096150;28;20034;-50
2022/05/09 01:28:44;;;;;;;;;;;;;;;18.42;62.54;99067.38;2098254;28;19928;-47
2022/05/09 01:29:49;;;;;;;;;;;;;;;18.42;62.43;99070.88;2100773;28;19928;-46
2022/05/09 01:30:52;;;;;;;;;;;;;;;18.42;62.34;99070.06;2098699;28;19981;-50
2022/05/09 01:31:55;;;;;;;;;;;;;;;18.42;62.40;99062.81;2097855;28;20569;-48
2022/05/09 01:32:57;;;;;;;;;;;;;;;18.42;62.32;99068.19;2098255;28;19932;-47
2022/05/09 01:34:00;;;;;;;;;;;;;;;18.42;62.26;99068.19;2097336;28;21867;-47
2022/05/09 01:35:04;;;;;;;;;;;;;;;18.42;62.33;99068.19;2098025;28;20493;-46
2022/05/09 01:36:08;;;;;;;;;;;;;;;18.42;62.55;99073.56;2098308;28;19932;-47
2022/05/09 01:37:11;;;;;;;;;;;;;;;18.43;62.23;99066.31;2099929;28;19931;-47
2022/05/09 01:38:17;;;;;;;;;;;;;;;18.42;62.24;99065.50;2096609;28;19924;-49
2022/05/09 01:39:18;;;;;;;;;;;;;;;18.43;62.33;99067.16;2094870;28;19943;-47
2022/05/09 01:40:19;;;;;;;;;;;;;;;18.42;62.34;99065.50;2100407;28;20018;-46
2022/05/09 01:41:20;;;;;;;;;;;;;;;18.43;62.48;99066.31;2099459;28;19994;-47
2022/05/09 01:42:22;;;;;;;;;;;;;;;18.42;62.39;99070.06;2099377;28;19931;-49
2022/05/09 01:43:29;;;;;;;;;;;;;;;18.40;62.51;99075.59;2098832;28;19928;-47
2022/05/09 01:44:30;;;;;;;;;;;;;;;18.41;62.45;99065.69;2097153;28;19932;-47
2022/05/09 01:45:31;;;;;;;;;;;;;;;18.42;62.47;99070.06;2095501;28;19932;-46
2022/05/09 01:46:33;;;;;;;;;;;;;;;18.42;62.48;99072.72;2097298;28;19939;-47
2022/05/09 01:50:12;;;;;;;;;;;;;;;18.41;62.48;99077.25;2096916;28;19968;-51
2022/05/09 01:51:13;;;;;;;;;;;;;;;18.41;62.42;99071.88;2099763;28;19928;-50
2022/05/09 01:52:16;;;;;;;;;;;;;;;18.40;62.49;99075.59;2097490;28;21502;-47
2022/05/09 01:53:18;;;;;;;;;;;;;;;18.39;62.36;99071.25;2098959;28;19928;-48
2022/05/09 01:54:18;;;;;;;;;;;;;;;18.40;62.54;99080.16;2101268;28;19928;-50
2022/05/09 01:55:20;;;;;;;;;;;;;;;18.40;62.39;99072.91;2101001;28;19934;-46
2022/05/09 01:56:22;;;;;;;;;;;;;;;18.42;62.52;99083.47;2101230;28;19977;-47
2022/05/09 01:57:23;;;;;;;;;;;;;;;18.40;62.51;99083.66;2101442;28;20738;-47
2022/05/09 01:58:24;;;;;;;;;;;;;;;18.40;62.39;99086.34;2101528;28;19931;-49
2022/05/09 01:59:25;;;;;;;;;;;;;;;18.40;62.42;99083.66;2100420;28;20306;-47
2022/05/09 02:00:26;;;;;;;;;;;;;;;18.39;62.64;99079.31;2097421;28;19928;-47
2022/05/09 02:01:29;;;;;;;;;;;;;;;18.39;62.44;99087.38;2096963;28;20068;-47
2022/05/09 02:02:30;;;;;;;;;;;;;;;18.39;62.33;99084.69;2099746;28;19935;-47
2022/05/09 02:03:31;;;;;;;;;;;;;;;18.39;62.47;99084.69;2098423;28;20011;-50
2022/05/09 02:04:34;;;;;;;;;;;;;;;18.39;62.39;99087.38;2099253;28;20444;-46
2022/05/09 02:05:35;;;;;;;;;;;;;;;18.39;62.47;99079.31;2098456;28;19932;-46
2022/05/09 02:06:36;;;;;;;;;;;;;;;18.40;62.37;99080.16;2098025;28;19931;-48
2022/05/09 02:07:39;;;;;;;;;;;;;;;18.40;62.39;99083.66;2098220;28;19924;-47
2022/05/09 02:08:39;;;;;;;;;;;;;;;18.40;62.40;99085.50;2092807;28;19932;-47
2022/05/09 02:09:41;;;;;;;;;;;;;;;18.42;62.40;99087.00;2097504;28;19927;-47
2022/05/09 02:10:42;;;;;;;;;;;;;;;18.41;62.44;99081.78;2100144;28;19936;-47
2022/05/09 02:11:43;;;;;;;;;;;;;;;18.40;62.60;99086.34;2099511;28;19928;-48
2022/05/09 02:12:44;;;;;;;;;;;;;;;18.41;62.45;99081.78;2102070;28;19924;-49
2022/05/09 02:13:46;;;;;;;;;;;;;;;18.41;62.48;99085.31;2099397;28;19931;-48
2022/05/09 02:14:48;;;;;;;;;;;;;;;18.40;62.38;99085.50;2097390;28;19935;-46
2022/05/09 02:15:49;;;;;;;;;;;;;;;18.38;62.52;99080.31;2098222;28;19983;-46
2022/05/09 02:16:50;;;;;;;;;;;;;;;18.38;62.36;99088.38;2097706;28;19933;-50
2022/05/09 02:17:51;;;;;;;;;;;;;;;18.38;62.63;99088.38;2100241;28;20360;-45
2022/05/09 02:18:52;;;;;;;;;;;;;;;18.37;62.54;99085.91;2097711;28;19934;-48
2022/05/09 02:19:55;;;;;;;;;;;;;;;18.37;62.71;99083.22;2101048;28;20390;-50
2022/05/09 02:20:56;;;;;;;;;;;;;;;18.38;62.31;99080.31;2097790;28;19943;-47
2022/05/09 02:21:57;;;;;;;;;;;;;;;18.39;62.55;99083.88;2093851;28;20442;-47
2022/05/09 02:23:00;;;;;;;;;;;;;;;18.38;62.57;99083.00;2099275;28;19969;-47
2022/05/09 02:24:00;;;;;;;;;;;;;;;18.39;62.33;99081.19;2099734;28;19928;-50
2022/05/09 02:25:26;;;;;;;;;;;;;;;18.37;62.35;99084.03;2100871;28;20317;-50
2022/05/09 02:26:24;;;;;;;;;;;;;;;18.37;62.43;99081.34;2098998;28;19928;-48
2022/05/09 02:27:26;;;;;;;;;;;;;;;18.37;62.55;99085.91;2100175;28;19932;-47
2022/05/09 02:28:26;;;;;;;;;;;;;;;18.39;62.46;99084.69;2097371;28;19931;-47
2022/05/09 02:29:28;;;;;;;;;;;;;;;18.39;62.34;99084.69;2097842;28;20360;-47
2022/05/09 02:30:30;;;;;;;;;;;;;;;18.39;62.24;99091.91;2090180;28;20312;-46
2022/05/09 02:31:31;;;;;;;;;;;;;;;18.40;62.23;99091.72;2093075;28;19974;-47
2022/05/09 02:32:33;;;;;;;;;;;;;;;18.39;62.32;99082.00;2098635;28;20718;-47
2022/05/09 02:33:33;;;;;;;;;;;;;;;18.40;62.21;99083.66;2098774;28;20317;-49
2022/05/09 02:34:35;;;;;;;;;;;;;;;18.40;62.46;99089.03;2099753;28;20011;-45
2022/05/09 02:35:37;;;;;;;;;;;;;;;18.37;62.29;99089.41;2098629;28;19939;-46
2022/05/09 02:36:38;;;;;;;;;;;;;;;18.38;62.48;99090.22;2095552;28;19928;-46
2022/05/09 02:37:39;;;;;;;;;;;;;;;18.38;62.33;99083.00;2099306;28;19935;-48
2022/05/09 02:38:42;;;;;;;;;;;;;;;18.38;62.56;99088.38;2095834;28;19950;-47
2022/05/09 02:39:42;;;;;;;;;;;;;;;18.38;62.40;99072.25;2096818;28;19932;-46
2022/05/09 02:40:44;;;;;;;;;;;;;;;18.38;62.35;99083.00;2091151;28;20019;-46
2022/05/09 02:41:44;;;;;;;;;;;;;;;18.38;62.27;99077.63;2098827;28;19960;-46
2022/05/09 02:42:46;;;;;;;;;;;;;;;18.37;62.61;99078.66;2096019;28;19955;-50
2022/05/09 02:43:46;;;;;;;;;;;;;;;18.37;62.47;99086.72;2092670;28;20575;-47
2022/05/09 02:44:50;;;;;;;;;;;;;;;18.37;62.32;99086.72;2096978;28;19928;-47
2022/05/09 02:45:50;;;;;;;;;;;;;;;18.37;62.52;99081.34;2097222;28;19939;-48
2022/05/09 02:46:52;;;;;;;;;;;;;;;18.38;62.44;99088.38;2096698;28;20012;-49
2022/05/09 02:47:53;;;;;;;;;;;;;;;18.37;62.71;99083.22;2100195;28;20428;-47
2022/05/09 02:48:57;;;;;;;;;;;;;;;18.38;62.37;99093.75;2095432;28;20046;-50
2022/05/09 02:49:57;;;;;;;;;;;;;;;18.39;62.25;99087.38;2095097;28;19924;-49
2022/05/09 02:50:59;;;;;;;;;;;;;;;18.39;62.46;99087.38;2097933;28;19932;-47
2022/05/09 02:52:02;;;;;;;;;;;;;;;18.39;62.44;99090.06;2100430;28;19932;-47
2022/05/09 02:53:04;;;;;;;;;;;;;;;18.38;62.36;99088.38;2098458;28;19928;-47
2022/05/09 02:54:05;;;;;;;;;;;;;;;18.38;62.31;99092.91;2095460;28;19939;-47
2022/05/09 02:55:08;;;;;;;;;;;;;;;18.40;62.15;99088.19;2097650;28;19928;-47
2022/05/09 02:56:10;;;;;;;;;;;;;;;18.38;62.43;99092.91;2100966;28;20594;-48
2022/05/09 02:57:10;;;;;;;;;;;;;;;18.38;62.45;99083.00;2097909;28;19931;-46
2022/05/09 02:58:13;;;;;;;;;;;;;;;18.37;62.49;99086.72;2096922;28;19932;-50
2022/05/09 02:59:15;;;;;;;;;;;;;;;18.36;62.19;99085.06;2096256;28;20014;-46
2022/05/09 03:00:18;;;;;;;;;;;;;;;18.39;62.51;99089.22;2099347;28;20006;-51
2022/05/09 03:01:20;;;;;;;;;;;;;;;18.39;62.43;99090.06;2098723;28;19932;-48
2022/05/09 03:02:21;;;;;;;;;;;;;;;18.37;62.30;99086.72;2097804;28;19939;-49
2022/05/09 03:04:42;;;;;;;;;;;;;;;18.39;62.37;99095.44;2097726;28;19936;-47
2022/05/09 03:05:43;;;;;;;;;;;;;;;18.37;62.45;99091.28;2100069;28;19939;-47
2022/05/09 03:06:45;;;;;;;;;;;;;;;18.39;62.44;99094.59;2099141;28;20631;-48
2022/05/09 03:07:45;;;;;;;;;;;;;;;18.37;62.37;99086.72;2095564;28;19932;-47
2022/05/09 03:08:47;;;;;;;;;;;;;;;18.37;62.39;99089.41;2099293;28;20019;-49
2022/05/09 03:09:49;;;;;;;;;;;;;;;18.37;62.48;99080.53;2097574;28;20536;-51
2022/05/09 03:10:51;;;;;;;;;;;;;;;18.37;62.46;99085.91;2096735;28;20475;-50
2022/05/09 03:11:52;;;;;;;;;;;;;;;18.36;62.49;99082.38;2094479;28;19936;-48
2022/05/09 03:12:53;;;;;;;;;;;;;;;18.37;62.46;99092.09;2096986;28;19976;-47
2022/05/09 03:13:54;;;;;;;;;;;;;;;18.37;62.26;99089.41;2099087;28;19933;-50
2022/05/09 03:14:55;;;;;;;;;;;;;;;18.36;62.47;99090.44;2100952;28;19967;-47
2022/05/09 03:15:58;;;;;;;;;;;;;;;18.37;62.44;99091.28;2101415;28;19955;-49
2022/05/09 03:16:59;;;;;;;;;;;;;;;18.36;62.30;99090.44;2100611;28;19928;-49
2022/05/09 03:18:00;;;;;;;;;;;;;;;18.38;62.48;99090.22;2097679;28;20290;-51
2022/05/09 03:19:01;;;;;;;;;;;;;;;18.37;62.21;99092.09;2098558;28;19927;-48
2022/05/09 03:20:03;;;;;;;;;;;;;;;18.38;62.38;99083.00;2099599;28;19932;-47
2022/05/09 03:21:05;;;;;;;;;;;;;;;18.37;62.43;99086.72;2097022;28;19981;-50
2022/05/09 03:22:06;;;;;;;;;;;;;;;18.38;62.19;99082.19;2097339;28;20424;-48
2022/05/09 03:23:08;;;;;;;;;;;;;;;18.36;62.39;99082.38;2096578;28;19931;-50
2022/05/09 03:24:10;;;;;;;;;;;;;;;18.38;62.40;99077.63;2097216;28;19971;-47
2022/05/09 03:25:12;;;;;;;;;;;;;;;18.38;62.45;99079.50;2097548;28;19935;-46
2022/05/09 03:26:13;;;;;;;;;;;;;;;18.37;62.08;99081.34;2097653;28;20894;-50
2022/05/09 03:27:15;;;;;;;;;;;;;;;18.36;62.38;99079.69;2101306;28;20087;-47
2022/05/09 03:28:19;;;;;;;;;;;;;;;18.39;62.33;99073.94;2096088;28;20412;-50
2022/05/09 03:29:20;;;;;;;;;;;;;;;18.37;62.29;99084.03;2096175;28;19963;-47
2022/05/09 03:30:21;;;;;;;;;;;;;;;18.35;62.46;99071.81;2097451;28;19931;-49
2022/05/09 03:31:22;;;;;;;;;;;;;;;18.35;62.50;99077.19;2095896;28;19924;-48
2022/05/09 03:32:23;;;;;;;;;;;;;;;18.37;62.37;99078.66;2099406;28;19932;-49
2022/05/09 03:33:27;;;;;;;;;;;;;;;18.36;62.20;99079.69;2099185;28;19924;-51
2022/05/09 03:34:29;;;;;;;;;;;;;;;18.37;62.39;99075.97;2099154;28;19932;-49
2022/05/09 03:35:30;;;;;;;;;;;;;;;18.35;62.41;99079.88;2098361;28;20010;-46
2022/05/09 03:36:32;;;;;;;;;;;;;;;18.34;62.24;99076.38;2097397;28;19935;-48
2022/05/09 03:37:32;;;;;;;;;;;;;;;18.36;62.15;99074.34;2101801;28;19936;-46
2022/05/09 03:38:34;;;;;;;;;;;;;;;18.36;62.23;99074.34;2093622;28;20389;-51
2022/05/09 03:39:34;;;;;;;;;;;;;;;18.36;62.39;99085.06;2095917;28;23821;-48
2022/05/09 03:40:37;;;;;;;;;;;;;;;18.33;62.27;99074.72;2097879;28;20582;-46
2022/05/09 03:41:38;;;;;;;;;;;;;;;18.35;62.53;99072.66;2097859;28;19936;-50
2022/05/09 03:42:40;;;;;;;;;;;;;;;18.34;62.54;99081.75;2098370;28;19932;-47
2022/05/09 03:43:41;;;;;;;;;;;;;;;18.34;62.32;99081.75;2095211;28;20417;-47
2022/05/09 03:44:42;;;;;;;;;;;;;;;18.35;62.46;99082.56;2093321;28;20019;-48
2022/05/09 03:45:44;;;;;;;;;;;;;;;18.35;62.24;99083.38;2093987;28;20054;-49
2022/05/09 03:46:46;;;;;;;;;;;;;;;18.34;62.46;99087.13;2097769;28;19932;-50
2022/05/09 03:47:47;;;;;;;;;;;;;;;18.35;62.34;99086.06;2096752;28;19924;-50
2022/05/09 03:48:48;;;;;;;;;;;;;;;18.34;62.34;99080.91;2098624;28;19938;-50
2022/05/09 03:49:50;;;;;;;;;;;;;;;18.35;62.46;99088.75;2097741;28;20322;-47
2022/05/09 03:50:52;;;;;;;;;;;;;;;18.35;62.19;99091.44;2095089;28;20406;-46
2022/05/09 03:51:52;;;;;;;;;;;;;;;18.35;62.33;99080.72;2094803;28;19924;-49
2022/05/09 03:52:54;;;;;;;;;;;;;;;18.37;62.31;99092.09;2100923;28;20864;-50
2022/05/09 03:53:55;;;;;;;;;;;;;;;18.35;62.41;99094.13;2101093;28;19932;-49
2022/05/09 03:54:57;;;;;;;;;;;;;;;18.36;62.18;99085.06;2096224;28;19934;-46
2022/05/09 03:56:00;;;;;;;;;;;;;;;18.35;62.29;99088.75;2098225;28;20300;-48
2022/05/09 03:57:01;;;;;;;;;;;;;;;18.35;62.42;99087.94;2098773;28;19934;-49
2022/05/09 03:58:03;;;;;;;;;;;;;;;18.37;62.12;99085.91;2101033;28;20431;-48
2022/05/09 03:59:03;;;;;;;;;;;;;;;18.35;62.42;99088.75;2095994;28;20324;-48
2022/05/09 04:00:06;;;;;;;;;;;;;;;18.35;62.42;99091.44;2098623;28;19932;-48
2022/05/09 04:01:11;;;;;;;;;;;;;;;18.37;62.09;99092.09;2097873;28;19996;-56
2022/05/09 04:02:12;;;;;;;;;;;;;;;18.37;62.14;99092.09;2098388;28;20402;-48
2022/05/09 04:03:13;;;;;;;;;;;;;;;18.36;62.22;99090.44;2100940;28;20022;-48
2022/05/09 04:04:14;;;;;;;;;;;;;;;18.35;62.35;99093.31;2097588;28;19924;-51
2022/05/09 04:05:17;;;;;;;;;;;;;;;18.37;62.37;99093.97;2098074;28;20381;-48
2022/05/09 04:06:18;;;;;;;;;;;;;;;18.36;62.33;99093.13;2098533;28;19924;-48
2022/05/09 04:07:19;;;;;;;;;;;;;;;18.36;62.19;99090.44;2097014;28;19939;-47
2022/05/09 04:08:21;;;;;;;;;;;;;;;18.36;62.15;99095.81;2099377;28;20406;-48
2022/05/09 04:09:22;;;;;;;;;;;;;;;18.35;62.34;99096.81;2096687;28;19928;-47
2022/05/09 04:10:26;;;;;;;;;;;;;;;18.38;62.25;99100.97;2098209;28;19938;-48
2022/05/09 04:11:28;;;;;;;;;;;;;;;18.36;62.27;99105.69;2095791;28;20466;-48
2022/05/09 04:12:29;;;;;;;;;;;;;;;18.36;62.11;99098.50;2098116;28;19974;-48
2022/05/09 04:13:30;;;;;;;;;;;;;;;18.34;62.41;99097.03;2096525;28;19977;-47
2022/05/09 04:17:15;;;;;;;;;;;;;;;18.36;62.31;99103.88;2073305;28;19929;-50
2022/05/09 04:18:18;;;;;;;;;;;;;;;18.34;62.40;99108.59;2100955;28;19928;-48
2022/05/09 04:19:19;;;;;;;;;;;;;;;18.36;62.16;99100.34;2098932;28;20618;-49
2022/05/09 04:20:21;;;;;;;;;;;;;;;18.38;62.36;99109.03;2094891;28;19973;-48
2022/05/09 04:21:22;;;;;;;;;;;;;;;18.35;61.97;99101.38;2097794;28;19924;-46
2022/05/09 04:22:23;;;;;;;;;;;;;;;18.35;62.45;99104.88;2094224;28;20498;-50
2022/05/09 04:23:24;;;;;;;;;;;;;;;18.34;62.40;99100.53;2098779;28;19969;-46
2022/05/09 04:24:25;;;;;;;;;;;;;;;18.34;62.39;99097.84;2098527;28;19932;-52
2022/05/09 04:25:27;;;;;;;;;;;;;;;18.33;62.40;99104.25;2098267;28;20232;-47
2022/05/09 04:26:31;;;;;;;;;;;;;;;18.34;62.30;99107.78;2099666;28;19938;-49
2022/05/09 04:27:32;;;;;;;;;;;;;;;18.33;62.44;99106.09;2099768;28;19975;-47
2022/05/09 04:28:34;;;;;;;;;;;;;;;18.32;62.44;99102.56;2097394;28;19924;-49
2022/05/09 04:29:35;;;;;;;;;;;;;;;18.33;62.48;99106.94;2093191;28;19927;-49
2022/05/09 04:30:38;;;;;;;;;;;;;;;18.34;62.46;99103.22;2096540;28;19928;-49
2022/05/09 04:31:38;;;;;;;;;;;;;;;18.34;62.35;99111.28;2096146;28;19928;-52
2022/05/09 04:32:40;;;;;;;;;;;;;;;18.33;62.42;99111.44;2095595;28;19951;-54
2022/05/09 04:33:41;;;;;;;;;;;;;;;18.33;62.21;99108.78;2099725;28;19932;-53
2022/05/09 04:34:42;;;;;;;;;;;;;;;18.31;62.54;99114.34;2099203;28;20370;-52
2022/05/09 04:35:44;;;;;;;;;;;;;;;18.31;62.47;99117.03;2097652;28;19928;-48
2022/05/09 04:36:45;;;;;;;;;;;;;;;18.33;62.34;99115.00;2099826;28;19928;-49
2022/05/09 04:37:47;;;;;;;;;;;;;;;18.32;62.21;99113.31;2097653;28;20389;-53
2022/05/09 04:38:51;;;;;;;;;;;;;;;18.32;62.45;99110.63;2094930;28;19963;-48
2022/05/09 04:39:51;;;;;;;;;;;;;;;18.35;62.04;99109.41;2096073;28;20236;-46
2022/05/09 04:40:54;;;;;;;;;;;;;;;18.34;62.44;99118.50;2099635;28;19932;-55
2022/05/09 04:41:56;;;;;;;;;;;;;;;18.33;62.46;99115.00;2092812;28;19932;-51
2022/05/09 04:42:58;;;;;;;;;;;;;;;18.34;62.24;99119.34;2097022;28;19932;-52
2022/05/09 04:43:59;;;;;;;;;;;;;;;18.34;62.16;99118.50;2096097;28;19928;-47
2022/05/09 04:45:01;;;;;;;;;;;;;;;18.35;62.40;99125.53;2099047;28;19934;-51
2022/05/09 04:46:02;;;;;;;;;;;;;;;18.33;62.25;99117.69;2100087;28;19974;-52
2022/05/09 04:47:03;;;;;;;;;;;;;;;18.34;62.25;99118.50;2099043;28;19955;-49
2022/05/09 04:48:05;;;;;;;;;;;;;;;18.32;62.13;99118.69;2096657;28;19925;-51
2022/05/09 04:49:06;;;;;;;;;;;;;;;18.30;62.27;99128.78;2098420;28;20019;-48
2022/05/09 04:50:08;;;;;;;;;;;;;;;18.29;62.39;99117.22;2099228;28;20294;-49
2022/05/09 04:51:10;;;;;;;;;;;;;;;18.32;62.47;99121.38;2100755;28;19984;-50
2022/05/09 04:52:11;;;;;;;;;;;;;;;18.31;62.33;99122.41;2094807;28;20515;-52
2022/05/09 04:53:12;;;;;;;;;;;;;;;18.31;62.49;99125.91;2098282;28;19928;-45
2022/05/09 04:54:16;;;;;;;;;;;;;;;18.31;62.45;99127.78;2096913;28;19928;-52
2022/05/09 04:55:17;;;;;;;;;;;;;;;18.32;62.47;99132.13;2099816;28;20390;-51
2022/05/09 04:56:18;;;;;;;;;;;;;;;18.30;62.24;99129.63;2098078;28;20505;-53
2022/05/09 04:57:21;;;;;;;;;;;;;;;18.29;62.29;99137.88;2100003;28;19971;-53
2022/05/09 04:58:23;;;;;;;;;;;;;;;18.33;62.16;99132.94;2095919;28;20294;-48
2022/05/09 04:59:24;;;;;;;;;;;;;;;18.33;62.36;99144.53;2097546;28;20518;-50
2022/05/09 05:00:26;;;;;;;;;;;;;;;18.33;62.21;99139.16;2100496;28;19979;-47
2022/05/09 05:01:26;;;;;;;;;;;;;;;18.32;62.13;99142.84;2098619;28;19932;-51
2022/05/09 05:02:28;;;;;;;;;;;;;;;18.33;62.21;99133.78;2099575;28;19932;-53
2022/05/09 05:03:28;;;;;;;;;;;;;;;18.33;62.25;99149.91;2100036;28;20030;-48
2022/05/09 05:04:30;;;;;;;;;;;;;;;18.34;62.15;99140.81;2100134;28;19928;-51
2022/05/09 05:05:30;;;;;;;;;;;;;;;18.34;62.30;99148.06;2096937;28;20022;-51
2022/05/09 05:06:32;;;;;;;;;;;;;;;18.33;62.17;99149.91;2096861;28;19940;-53
2022/05/09 05:07:32;;;;;;;;;;;;;;;18.31;62.42;99142.03;2094857;28;19939;-49
2022/05/09 05:08:35;;;;;;;;;;;;;;;18.30;62.47;99144.88;2100806;28;19924;-52
2022/05/09 05:09:36;;;;;;;;;;;;;;;18.30;62.31;99152.94;2098955;28;19980;-51
2022/05/09 05:10:37;;;;;;;;;;;;;;;18.30;62.31;99150.25;2100710;28;20913;-49
2022/05/09 05:11:38;;;;;;;;;;;;;;;18.30;62.22;99155.63;2098466;28;19935;-51
2022/05/09 05:12:41;;;;;;;;;;;;;;;18.30;62.54;99153.81;2100411;28;20286;-55
2022/05/09 05:13:42;;;;;;;;;;;;;;;18.31;62.20;99160.81;2097390;28;19931;-52
2022/05/09 05:14:44;;;;;;;;;;;;;;;18.31;62.59;99151.94;2100949;28;19928;-52
2022/05/09 05:15:47;;;;;;;;;;;;;;;18.32;62.18;99158.97;2099830;28;20470;-52
2022/05/09 05:17:00;;;;;;;;;;;;;;;18.31;62.20;99152.78;2099109;28;19932;-51
2022/05/09 05:18:01;;;;;;;;;;;;;;;18.34;62.42;99159.63;2099507;28;20010;-53
2022/05/09 05:19:02;;;;;;;;;;;;;;;18.35;62.35;99160.44;2100576;28;20349;-52
2022/05/09 05:20:04;;;;;;;;;;;;;;;18.31;62.29;99160.00;2102487;28;20011;-51
2022/05/09 05:21:09;;;;;;;;;;;;;;;18.33;62.28;99162.47;2099825;28;19957;-54
2022/05/09 05:22:12;;;;;;;;;;;;;;;18.35;62.21;99157.75;2101814;28;20474;-46
2022/05/09 05:23:14;;;;;;;;;;;;;;;18.31;62.27;99160.00;2097864;28;19925;-55
2022/05/09 05:24:14;;;;;;;;;;;;;;;18.31;62.53;99158.13;2101335;28;20968;-53
2022/05/09 05:25:18;;;;;;;;;;;;;;;18.31;62.51;99154.63;2099930;28;19969;-51
2022/05/09 05:26:18;;;;;;;;;;;;;;;18.34;62.50;99159.63;2098825;28;19932;-48
2022/05/09 05:27:21;;;;;;;;;;;;;;;18.33;62.44;99163.34;2099359;28;20014;-52
2022/05/09 05:28:23;;;;;;;;;;;;;;;18.33;62.61;99163.34;2098284;28;20030;-50
2022/05/09 05:29:25;;;;;;;;;;;;;;;18.33;62.49;99159.78;2095623;28;19985;-55